Terminal Aerodrome Forecast
Issued by NWS Wilmington, OH

Current Version | Previous Version | Text Only | Print | Product List | Glossary Off
Versions: 1 2 3 4 5 6 7 8 9 10 11 12 13 14 15 16 17 18 19 20 21 22

219
FTUS41 KILN 221725
TAFCVG
TAF
KCVG 221725Z 2218/2324 34014KT P6SM SCT080
     FM230100 02003KT P6SM SKC
     FM231900 34004KT P6SM FEW050=

USA.gov is the U.S. government's official web portal to all federal, state and local government web resources and services.